Detall de PIREP

Printer-friendly versionPDF version

[2014/07/19 15:26:00]
Flight IATA:CT3300
Pilot Number:012
Company ICAO:CAT
Aircraft Type:MD11/E
PAX:292
Aircraft Registration:PAX
Departing Airport: LEZG
Destination Airport: DAAG
Alternate Airport:DAAE
Online: VATSIM
Route:CMA UM176 ALT/N0484F350 UL150 LABRO UA31 CHE UG26 ALR
Flight Level:F310
No Slew and time accel
No pause
Crash detect
Detect pilot in Cockpit between each 30 and 45 minutes
15:26 Zero fuel Weight: 424297 Lbs, Fuel Weight: 54380 Lbs
15:26 VATSIM:LEZG 191500Z 28008KT 240V320 9999 FEW040 30/06 Q1010
15:26 VATSIM:DAAG 191500Z 01007KT 340V040 CAVOK 32/18 Q1012
15:27 Parking Brakes off
15:31 Take-off
15:31 Take off Weight: 477345 Lbs
15:31 Wind: 282º @ 008 Knots Heading: 299º
15:31 POS N41º 39´ 49´´ W001º 01´ 38´´
15:31 Gear Up: 190 Knots
15:31 Flaps:3 at 190 Knots
15:32 Flaps:2 at 217 Knots
15:32 Flaps:3 at 220 Knots
15:32 Flaps:2 at 221 Knots
15:32 Flaps:1 at 224 Knots
15:32 Flaps:0 at 241 Knots
15:43 TOC
15:43 Fuel Weight: 44676 Lb
15:46 Wind:223º@082 Knots Heading: 176º Ground Speed: 442 Knots Altitude 32919 ft
16:01 Wind:248º@058 Knots Heading: 174º Ground Speed: 483 Knots Altitude 32877 ft
16:15 TOD
16:15 Fuel Weight: 36061 Lb
16:16 Wind:239º@045 Knots Heading: 135º Ground Speed: 484 Knots Altitude 28864 ft
16:30 Flaps:1 at 289 Knots
16:31 Wind:233º@008 Knots Heading: 042º Ground Speed: 301 Knots Altitude 1925 ft
16:31 Gear Down: 263 Knots
16:31 Flaps:2 at 262 Knots
16:31 Flaps:3 at 252 Knots
16:32 Flaps:4 at 207 Knots
16:32 Flaps:3 at 205 Knots
16:32 Flaps:4 at 202 Knots
16:32 Flaps:5 at 197 Knots
16:32 Flaps:6 at 196 Knots
16:32 Flaps:5 at 192 Knots
16:32 Flaps:6 at 190 Knots
16:32 Flaps:7 at 187 Knots
16:33 TouchDown:Rate -129 ft/min Speed: 147 Knots
16:33 VATSIM:DAAG 191600Z 35008KT 320V030 CAVOK 32/20 Q1011
16:33 Land
16:33 Wind:272º@008 Knots
16:33 Heading: 052º
16:33 Flight Duration: 01:02
16:33 Landing Weight: 458057 Lbs
16:33 POS N36º 42´ 10´´ E003º 14´ 07´´
16:37 Parking brakes on
16:37 Block to Block Duration: 01:10
16:37 Final Fuel: 33212 Lbls
16:37 Spent Fuel: 21168 Lbls
16:37 Flight Length: 442 NM
16:37 TOD Land Length: 112 NM

Exportar CSV

Powered by Drupal - Modified by Danger4k